METAR Data
IDs: Format: Raw Decoded Include TAF

Data at: 1738 UTC 26 Oct 2021

KWVI 261653Z AUTO 00000KT 10SM FEW010 13/11 A3024 RMK AO2 SLP239 T01330106
KWVI 261650Z AUTO 00000KT 10SM SCT010 13/11 A3024 RMK AO2
KWVI 261553Z AUTO 00000KT 10SM OVC011 10/09 A3022 RMK AO2 SLP234 T01000094
KWVI 261453Z AUTO 00000KT 10SM BKN012 08/08 A3019 RMK AO2 SLP221 T00830083 51019
KWVI 261353Z AUTO 35003KT 10SM FEW007 OVC110 09/08 A3017 RMK AO2 SLP215 T00890078
KWVI 261345Z AUTO 00000KT 10SM SCT007 OVC120 09/08 A3016 RMK AO2 T00890078
KWVI 261328Z AUTO 35004KT 10SM OVC006 08/08 A3016 RMK AO2 T00830078
KWVI 261313Z AUTO 34003KT 10SM OVC005 08/08 A3016 RMK AO2 T00830078
KWVI 261253Z AUTO 36003KT 10SM OVC004 08/08 A3015 RMK AO2 SLP209 T00830078
KWVI 261153Z AUTO 34004KT 10SM BKN004 OVC015 09/08 A3013 RMK AO2 SLP202 70032 T00890083 10094 20083 53008
KWVI 261053Z AUTO 35004KT 9SM BKN003 OVC013 08/08 A3012 RMK AO2 SLP198 T00830083
KWVI 261046Z AUTO 34004KT 10SM BKN003 OVC013 08/08 A3012 RMK AO2 T00830078
KWVI 260953Z AUTO 35004KT 10SM OVC005 08/07 A3011 RMK AO2 SLP197 T00830072
KWVI 260928Z AUTO 34004KT 10SM OVC005 08/07 A3012 RMK AO2 T00830072
KWVI 260853Z AUTO 33003KT 10SM BKN006 BKN010 08/07 A3011 RMK AO2 SLP194 T00830072 53013
KWVI 260832Z AUTO 34003KT 10SM BKN006 BKN010 08/07 A3010 RMK AO2 T00830072
KWVI 260816Z AUTO 34003KT 10SM SCT006 08/07 A3010 RMK AO2 T00830072
KWVI 260753Z AUTO 34004KT 10SM CLR 08/07 A3009 RMK AO2 SLP188 T00830072 401830083
KWVI 260653Z AUTO 32005KT 10SM CLR 09/07 A3008 RMK AO2 SLP185 T00890072
KWVI 260553Z AUTO 33004KT 10SM CLR 08/08 A3007 RMK AO2 SLP181 T00830078 10156 20083 53026
KWVI 260453Z AUTO 33003KT 10SM CLR 10/08 A3004 RMK AO2 SLP172 T01000083
KWVI 260353Z AUTO 32004KT 10SM CLR 10/09 A3000 RMK AO2 SLP160 T01000089
KWVI 260253Z AUTO 31003KT 10SM CLR 13/10 A2999 RMK AO2 SLP155 T01280100 53023
KWVI 260153Z AUTO 27007KT 10SM CLR 13/11 A2997 RMK AO2 SLP148 T01330106
KWVI 260053Z AUTO 26008KT 10SM CLR 14/11 A2994 RMK AO2 SLP137 T01390106
KWVI 252353Z AUTO 24011KT 10SM CLR 16/11 A2992 RMK AO2 SLP132 T01560106 10183 20150 53016
KWVI 252253Z AUTO 25014G21KT 10SM CLR 16/11 A2990 RMK AO2 SLP125 T01610111
KWVI 252153Z AUTO 27017G26KT 10SM FEW065 17/11 A2989 RMK AO2 PK WND 27026/2148 SLP121 T01720106
KWVI 252053Z AUTO 25015G22KT 10SM CLR 17/11 A2987 RMK AO2 SLP116 T01720106 51019
KWVI 251953Z AUTO 25015G21KT 10SM CLR 17/11 A2987 RMK AO2 SLP114 T01670111
KWVI 251853Z AUTO 26014G22KT 10SM CLR 16/12 A2985 RMK AO2 SLP107 T01610122
KWVI 251753Z AUTO 27011KT 10SM CLR 16/11 A2982 RMK AO2 SLP097 60032 T01610106 10161 20117 52030
No TAF found for KWVI

KSNS 261653Z 16005KT 10SM CLR 12/08 A3024 RMK AO2 SLP248 T01220083
KSNS 261553Z 13007KT 10SM FEW090 11/08 A3022 RMK AO2 SLP241 T01060078
KSNS 261453Z 15005KT 10SM SCT110 08/06 A3018 RMK AO2 SLP229 T00830061 51018
KSNS 261353Z 00000KT 10SM CLR 09/07 A3017 RMK AO2 SLP225 T00890067
KSNS 261253Z AUTO 19003KT 10SM CLR 09/07 A3014 RMK AO2 SLP216 T00890072
KSNS 261153Z AUTO 13003KT 10SM CLR 09/08 A3013 RMK AO2 SLP210 70022 T00940078 10128 20089 52008
KSNS 261053Z AUTO 16006KT 10SM CLR 10/08 A3011 RMK AO2 SLP206 T01000083
KSNS 260953Z AUTO 15003KT 10SM FEW020 SCT032 11/08 A3011 RMK AO2 SLP206 T01110078
KSNS 260924Z AUTO 00000KT 10SM FEW023 BKN031 12/09 A3011 RMK AO2 T01170089
KSNS 260853Z AUTO 00000KT 10SM OVC019 12/09 A3010 RMK AO2 SLP202 T01170094 51015
KSNS 260817Z AUTO 00000KT 10SM SCT018 BKN026 12/09 A3009 RMK AO2 T01220094
KSNS 260802Z AUTO 00000KT 10SM FEW018 SCT026 12/09 A3008 RMK AO2 T01220094
KSNS 260753Z AUTO 00000KT 10SM FEW016 BKN024 12/09 A3008 RMK AO2 SLP196 T01220094 401830122
KSNS 260734Z AUTO 28003KT 10SM SCT016 SCT022 BKN028 12/09 A3008 RMK AO2 T01220094
KSNS 260713Z AUTO 00000KT 10SM SCT017 13/09 A3008 RMK AO2 T01280094
KSNS 260653Z AUTO 27004KT 10SM BKN017 13/09 A3008 RMK AO2 SLP194 T01280094
KSNS 260553Z AUTO 00000KT 10SM OVC018 13/10 A3006 RMK AO2 SLP187 T01280100 10172 20122 51021
KSNS 260535Z AUTO 00000KT 10SM BKN019 13/10 A3006 RMK AO2 T01280100
KSNS 260453Z AUTO 00000KT 10SM FEW016 FEW023 13/10 A3004 RMK AO2 SLP182 T01330100
KSNS 260353Z AUTO 00000KT 10SM CLR 13/10 A3002 RMK AO2 SLP175 T01330100
KSNS 260346Z AUTO 00000KT 10SM FEW021 FEW026 14/10 A3002 RMK AO2 T01390100
KSNS 260320Z AUTO 00000KT 10SM BKN023 14/11 A3001 RMK AO2 T01390106
KSNS 260253Z AUTO 09004KT 10SM CLR 13/10 A3000 RMK AO2 SLP166 T01330100 52023
KSNS 260153Z 28006KT 10SM CLR 15/11 A2998 RMK AO2 SLP160 T01500106
KSNS 260053Z 29010KT 10SM FEW022 16/11 A2995 RMK AO2 SLP149 T01610106
KSNS 260000Z 29011KT 10SM SCT024 BKN030 BKN038 17/10 A2993 RMK AO2 T01720100
KSNS 252353Z 28012KT 10SM BKN026 BKN033 BKN050 17/11 A2993 RMK AO2 SLP143 T01720106 10183 20161 53015
KSNS 252342Z 29011KT 10SM BKN027 BKN034 BKN045 18/10 A2992 RMK AO2 T01780100
KSNS 252253Z 31013KT 10SM BKN033 BKN044 18/08 A2991 RMK AO2 SLP136 T01780083
KSNS 252153Z 28014KT 10SM FEW032 18/09 A2990 RMK AO2 SLP132 T01780089
KSNS 252053Z 29014KT 10SM CLR 18/07 A2988 RMK AO2 SLP128 T01780072 51022
KSNS 251953Z 30011G20KT 10SM SCT025 SCT032 BKN041 18/09 A2988 RMK AO2 SLP127 T01780094
KSNS 251853Z 30016G21KT 10SM SCT029 SCT042 17/09 A2986 RMK AO2 SLP119 T01670089
KSNS 251753Z 29011G21KT 10SM FEW016 SCT023 SCT033 17/11 A2982 RMK AO2 RAB07E21 SLP106 P0000 60022 T01670111 10167 20133 53018

KSNS 261725Z 2618/2718 16006KT P6SM SKC
  FM262100 30009KT P6SM BKN250
  FM270400 VRB03KT P6SM SCT250
  FM271500 VRB04KT P6SM SKC


KMRY 261654Z 08003KT 10SM CLR 16/07 A3023 RMK AO2 SLP249 T01560072
KMRY 261554Z 09004KT 10SM CLR 13/07 A3022 RMK AO2 SLP244 T01330067
KMRY 261454Z 14004KT 10SM CLR 11/06 A3017 RMK AO2 SLP229 60000 T01060061 51017
KMRY 261354Z 10005KT 10SM CLR 10/06 A3016 RMK AO2 SLP225 T01000061
KMRY 261254Z 10006KT 10SM CLR 10/06 A3014 RMK AO2 RAE52 SLP219 P0000 T01000061
KMRY 261154Z AUTO 12006KT 10SM -RA CLR 12/06 A3012 RMK AO2 SLP212 P0000 60000 70027 T01170061 10122 20100 52006
KMRY 261054Z AUTO 09005KT 10SM -RA CLR 10/07 A3012 RMK AO2 SLP210 P0000 T01000067
KMRY 260954Z AUTO 09006KT 10SM -RA CLR 11/07 A3011 RMK AO2 SLP208 P0000 T01060072
KMRY 260854Z AUTO 15005KT 10SM -RA CLR 12/08 A3010 RMK AO2 SLP206 P0000 60000 T01220083 53012
KMRY 260817Z AUTO 00000KT 10SM -RA FEW015 SCT023 11/09 A3010 RMK AO2 P0000 T01110089
KMRY 260754Z AUTO 11005KT 10SM -RA BKN015 BKN022 12/09 A3009 RMK AO2 SLP201 P0000 T01170089 401780106
KMRY 260744Z AUTO 10005KT 10SM -RA BKN015 11/09 A3009 RMK AO2 P0000 T01110089
KMRY 260654Z AUTO 15004KT 10SM -RA CLR 11/09 A3008 RMK AO2 SLP199 P0000 T01110094
KMRY 260554Z AUTO 19004KT 10SM -RA CLR 12/10 A3007 RMK AO2 SLP194 P0000 60000 T01220100 10161 20117 53023
KMRY 260454Z AUTO 11003KT 10SM -RA CLR 12/09 A3005 RMK AO2 SLP186 P0000 T01170094
KMRY 260354Z 18004KT 10SM -RA CLR 13/11 A3002 RMK AO2 SLP177 P0000 T01330106
KMRY 260254Z 18004KT 10SM -RA CLR 13/10 A3000 RMK AO2 SLP171 P0000 60000 T01330100 51021
KMRY 260154Z 21004KT 10SM -RA CLR 14/10 A2999 RMK AO2 SLP167 P0000 T01390100
KMRY 260054Z 27005KT 10SM -RA CLR 16/10 A2996 RMK AO2 SLP157 P0000 T01560100
KMRY 260001Z 26009KT 10SM -RA FEW020 SCT025 SCT031 16/11 A2994 RMK AO2 P0000 T01610106
KMRY 252354Z 25010KT 10SM -RA SCT022 BKN029 16/11 A2994 RMK AO2 SLP150 P0000 60000 T01610106 10178 20156 53014
KMRY 252334Z 27009KT 10SM -RA SCT022 BKN029 BKN035 17/11 A2994 RMK AO2 P0000 T01670106
KMRY 252254Z 26010KT 10SM -RA CLR 16/10 A2992 RMK AO2 SLP143 P0000 T01610100
KMRY 252154Z 25008KT 10SM -RA FEW025 FEW032 17/10 A2991 RMK AO2 SLP140 P0000 T01670100
KMRY 252054Z 25010KT 10SM -RA SCT030 SCT038 17/09 A2990 RMK AO2 SLP136 P0000 60000 T01720094 51019
KMRY 252005Z 27011KT 10SM -RA SCT025 BKN033 17/09 A2990 RMK AO2 P0000 T01720089
KMRY 251954Z 26011G17KT 10SM -RA BKN025 BKN033 18/09 A2990 RMK AO2 SLP134 P0000 T01780094
KMRY 251854Z 26012KT 10SM -RA BKN019 BKN028 OVC040 16/11 A2987 RMK AO2 SLP128 P0000 T01560111
KMRY 251814Z 26011KT 10SM -RA FEW017 SCT024 16/12 A2985 RMK AO2 P0000 T01560117
KMRY 251754Z 24013KT 10SM -RA BKN017 BKN025 BKN039 16/12 A2984 RMK AO2 SLP117 P0000 60027 T01560122 10161 20133 51022
KMRY 251751Z 24011KT 10SM -RA BKN017 BKN025 BKN039 16/12 A2984 RMK AO2 P0000

KMRY 261725Z 2618/2718 VRB03KT P6SM FEW100
  FM261900 27005KT P6SM BKN100
  FM270400 VRB03KT P6SM SCT250
  FM271200 VRB04KT P6SM FEW250


KSJC 261653Z 15005KT 10SM FEW036 SCT085 BKN110 14/09 A3022 RMK AO2 SLP233 T01440094
KSJC 261553Z 15006KT 10SM FEW042 SCT085 BKN110 12/09 A3021 RMK AO2 SLP229 T01220094
KSJC 261453Z 17003KT 10SM FEW042 SCT085 BKN110 10/08 A3017 RMK AO2 SLP217 T01000083 53019
KSJC 261353Z 16006KT 10SM BKN090 10/08 A3015 RMK AO2 SLP208 T01000083
KSJC 261253Z 17004KT 10SM BKN100 10/08 A3014 RMK AO2 SLP207 T01000078
KSJC 261153Z AUTO 15004KT 10SM CLR 09/07 A3012 RMK AO2 SLP198 70014 T00940067 10117 20094 53008
KSJC 261053Z AUTO 16004KT 10SM BKN120 10/07 A3010 RMK AO2 SLP192 T01000072
KSJC 260953Z AUTO 16006KT 10SM BKN120 11/07 A3010 RMK AO2 SLP191 T01060072
KSJC 260853Z AUTO 16003KT 10SM CLR 10/07 A3010 RMK AO2 SLP191 T01000072 53013
KSJC 260753Z AUTO 13003KT 10SM CLR 09/07 A3008 RMK AO2 SLP186 T00940067 401940094
KSJC 260653Z 16005KT 10SM FEW040 11/07 A3007 RMK AO2 SLP181 LAST T01060072
KSJC 260553Z 16005KT 10SM FEW035 11/08 A3006 RMK AO2 SLP178 T01110078 10178 20106 53023
KSJC 260453Z 00000KT 10SM FEW025 FEW035 12/08 A3003 RMK AO2 SLP167 T01220083
KSJC 260353Z 30004KT 10SM FEW025 FEW035 13/08 A3000 RMK AO2 SLP159 T01330083
KSJC 260253Z 28004KT 10SM FEW026 FEW038 14/09 A2999 RMK AO2 SLP154 TCU DSNT NE-E T01390089 53028
KSJC 260153Z 26007KT 10SM FEW026 FEW038 14/09 A2997 RMK AO2 SLP147 TCU DSNT NE-SE T01440089
KSJC 260053Z 27010KT 9SM FEW032 SCT048TCU SCT065 16/08 A2993 RMK AO2 SLP133 TCU NE-SE TCU DSNT NW-S T01610078
KSJC 252353Z 30010KT 10SM FEW032 SCT048TCU BKN065 18/08 A2991 RMK AO2 SLP126 TCU OHD TCU NW-S TCU DSNT ALQDS T01780078 10194 20161 53016
KSJC 252253Z 29010KT 10SM FEW032 SCT048TCU BKN065 17/07 A2989 RMK AO2 SLP120 TCU W-S TCU DSNT ALQDS T01720067
KSJC 252153Z 31011KT 10SM FEW032 SCT048TCU BKN065 19/07 A2987 RMK AO2 SLP114 TCU NW-S TCU DSNT ALQDS T01890072
KSJC 252053Z 26009KT 140V330 10SM FEW032 SCT048TCU BKN055 19/07 A2986 RMK AO2 SLP110 TCU W-S TCU DSNT ALQDS T01890072 51018
KSJC 251953Z 30011KT 10SM FEW020 SCT040TCU BKN055 18/09 A2985 RMK AO2 SLP108 TCU ALQDS T01830089
KSJC 251853Z 28011KT 10SM FEW020 SCT039TCU SCT060 17/08 A2983 RMK AO2 SLP102 TCU NE-SE T01720083
KSJC 251753Z 27012KT 10SM FEW014 SCT026TCU BKN037 17/11 A2980 RMK AO2 SLP092 TCU E-SE 60014 T01670106 10167 20133 51031

KSJC 261725Z 2618/2718 14005KT P6SM FEW050 BKN100
  FM262000 VRB04KT P6SM BKN080
  FM262300 30007KT P6SM BKN050
  FM270800 VRB03KT P6SM BKN250
  FM271700 29005KT P6SM SCT100


KSFO 261656Z 12007KT 10SM BKN023 BKN110 14/11 A3020 RMK AO2 SLP228 T01440106
KSFO 261556Z 13007KT 10SM FEW024 BKN110 14/11 A3020 RMK AO2 SLP225 T01390106
KSFO 261456Z 17006KT 9SM SCT024 BKN031 13/11 A3016 RMK AO2 SLP214 T01330106 53021
KSFO 261356Z 15005KT 10SM FEW005 BKN100 13/11 A3013 RMK AO2 SLP204 T01330106
KSFO 261256Z 17004KT 10SM FEW005 BKN095 13/11 A3013 RMK AO2 SLP201 T01330106
KSFO 261156Z 16005KT 10SM FEW005 BKN100 13/11 A3010 RMK AO2 SLP193 70013 T01330106 10133 20122 53005
KSFO 261056Z 00000KT 10SM FEW005 BKN110 13/11 A3009 RMK AO2 SLP190 T01330106
KSFO 260956Z 20004KT 10SM FEW005 BKN120 13/11 A3008 RMK AO2 SLP187 T01280106
KSFO 260856Z 01003KT 10SM FEW005 BKN200 13/11 A3009 RMK AO2 SLP188 T01330111 53013
KSFO 260756Z 00000KT 10SM FEW006 BKN200 13/11 A3007 RMK AO2 SLP182 T01330106 401720122
KSFO 260656Z 20004KT 10SM FEW006 12/10 A3006 RMK AO2 SLP178 T01220100
KSFO 260556Z 22004KT 10SM FEW006 13/10 A3005 RMK AO2 SLP175 T01280100 10156 20128 53023
KSFO 260456Z 18004KT 10SM FEW008 13/10 A3002 RMK AO2 SLP167 T01280100
KSFO 260356Z 20005KT 10SM FEW008 FEW028 13/11 A3000 RMK AO2 SLP157 T01330106
KSFO 260256Z 25006KT 10SM FEW008 FEW028 14/11 A2998 RMK AO2 SLP152 T01390106 51024
KSFO 260156Z 26008KT 10SM FEW010 FEW028 14/11 A2996 RMK AO2 SLP145 T01440106
KSFO 260056Z 27010KT 10SM FEW018 SCT041 15/11 A2993 RMK AO2 SLP135 T01500106
KSFO 252356Z 27013KT 10SM FEW028 SCT041 16/10 A2991 RMK AO2 SLP128 T01610100 10172 20156 53017
KSFO 252256Z 27013KT 10SM FEW028 SCT043 16/10 A2989 RMK AO2 SLP122 T01610100
KSFO 252156Z 27016KT 10SM FEW028 SCT043 17/09 A2987 RMK AO2 SLP115 T01670094
KSFO 252056Z 26013KT 10SM FEW010 SCT025 17/09 A2986 RMK AO2 SLP111 T01670094 51019
KSFO 251956Z 27016KT 10SM FEW010 SCT025 17/09 A2985 RMK AO2 SLP109 T01670089
KSFO 251856Z 28016G21KT 10SM FEW010 SCT025 16/10 A2983 RMK AO2 SLP102 T01610100
KSFO 251756Z 28017KT 10SM FEW010 FEW020 16/11 A2980 RMK AO2 SLP091 60013 T01560106 10156 20139 53033

KSFO 261725Z 2618/2724 15006KT P6SM BKN025 OVC100
  FM262100 VRB06KT 6SM BR VCSH BKN030
  FM270200 25006KT P6SM OVC050
  FM271000 VRB02KT P6SM OVC035
  FM271500 VRB04KT P6SM BKN030
  FM271900 34006KT P6SM SCT250


KHAF 261735Z AUTO 18008KT 4SM BR BKN012 14/12 A3023 RMK AO2
KHAF 261715Z AUTO 18009KT 2 1/2SM BR BKN012 BKN018 14/12 A3022 RMK AO2
KHAF 261655Z AUTO 17008KT 3SM BR SCT013 BKN019 14/12 A3022 RMK AO2
KHAF 261635Z AUTO 16006KT 3SM BR BKN013 BKN019 BKN024 14/12 A3022 RMK AO2
KHAF 261615Z AUTO 16006KT 2 1/2SM BR BKN014 BKN021 13/12 A3021 RMK AO2
KHAF 261555Z AUTO 14006KT 1 3/4SM BR BKN015 BKN022 13/12 A3020 RMK AO2
KHAF 261535Z AUTO 13005KT 1 1/2SM BR OVC016 13/12 A3019 RMK AO2
KHAF 261515Z AUTO 3SM BR BKN019 BKN031 BKN110 13/12 A3018 RMK AO2
KHAF 261455Z AUTO 17006KT 2 1/2SM BR FEW013 BKN020 BKN110 13/12 A3018 RMK AO2
KHAF 261435Z AUTO 17005KT 2 1/2SM BR 13/12 A3016 RMK AO2
KHAF 261415Z AUTO 16005KT 3SM BR 12/12 A3015 RMK AO2
KHAF 261355Z AUTO 17006KT 3SM BR OVC016 13/12 A3014 RMK AO2
KHAF 261335Z AUTO 16005KT 4SM BR OVC017 13/12 A3014 RMK AO2
KHAF 261315Z AUTO 17006KT 4SM BR FEW012 OVC018 13/12 A3014 RMK AO2
KHAF 261255Z AUTO 15003KT 3SM BR BKN012 BKN017 OVC100 12/12 A3013 RMK AO2
KHAF 261235Z AUTO 12004KT 3SM BR SCT012 BKN016 OVC095 12/11 A3013 RMK AO2
KHAF 261215Z AUTO 13005KT 2 1/2SM BR BKN014 OVC095 12/12 A3012 RMK AO2
KHAF 261155Z AUTO 15003KT 3SM BR FEW003 BKN013 OVC100 13/12 A3012 RMK AO2
KHAF 261135Z AUTO 18005KT 2SM BR BKN012 OVC100 13/12 A3011 RMK AO2
KHAF 261115Z AUTO 18003KT 1 3/4SM BR FEW005 BKN013 OVC100 12/12 A3010 RMK AO2
KHAF 261055Z AUTO 19004KT 2 1/2SM BR BKN014 BKN110 13/12 A3010 RMK AO2
KHAF 261035Z AUTO 00000KT 2SM BR BKN011 OVC016 13/12 A3010 RMK AO2
KHAF 261015Z AUTO 00000KT 2 1/2SM BR OVC009 13/12 A3009 RMK AO2
KHAF 260955Z AUTO 00000KT 3SM BR OVC008 12/12 A3010 RMK AO2
KHAF 260935Z AUTO 00000KT 4SM BR OVC008 12/12 A3009 RMK AO2
KHAF 260915Z AUTO 00000KT 3SM BR FEW004 OVC008 12/12 A3009 RMK AO2
KHAF 260855Z AUTO 00000KT 2 1/2SM BR BKN005 OVC009 12/12 A3009 RMK AO2
KHAF 260835Z AUTO 00000KT 2 1/2SM BR OVC006 12/12 A3009 RMK AO2
KHAF 260815Z AUTO 00000KT 3SM BR BKN005 OVC008 11/11 A3008 RMK AO2
KHAF 260755Z AUTO 00000KT 3SM BR OVC007 11/10 A3008 RMK AO2
KHAF 260735Z AUTO 00000KT 3SM BR FEW003 OVC008 10/10 A3008 RMK AO2
KHAF 260715Z AUTO 00000KT 4SM BR OVC008 10/10 A3007 RMK AO2
KHAF 260655Z AUTO 00000KT 4SM BR OVC007 09/09 A3007 RMK AO2
KHAF 260635Z AUTO 00000KT 4SM BR SCT003 BKN009 10/09 A3007 RMK AO2
KHAF 260615Z AUTO 00000KT 4SM BR FEW003 BKN008 09/09 A3007 RMK AO2
KHAF 260555Z AUTO 00000KT 4SM BR FEW009 10/10 A3006 RMK AO2
KHAF 260535Z AUTO 00000KT 3SM BR FEW010 10/10 A3005 RMK AO2
KHAF 260515Z AUTO 00000KT 4SM BR FEW003 BKN009 10/10 A3004 RMK AO2
KHAF 260455Z AUTO 00000KT 3SM BR BKN003 BKN007 10/10 A3003 RMK AO2
KHAF 260435Z AUTO 00000KT 3SM BR BKN003 SCT007 BKN010 10/10 A3002 RMK AO2
KHAF 260415Z AUTO 00000KT 4SM BR BKN003 BKN009 11/10 A3001 RMK AO2
KHAF 260355Z AUTO 00000KT 4SM BR SCT004 BKN007 11/11 A3000 RMK AO2
KHAF 260335Z AUTO 00000KT 4SM BR SCT005 SCT010 11/11 A3000 RMK AO2
KHAF 260315Z AUTO 00000KT 4SM BR BKN010 12/11 A2999 RMK AO2
KHAF 260255Z AUTO 00000KT 3SM BR BKN009 12/11 A2999 RMK AO2
KHAF 260235Z AUTO 00000KT 4SM BR SCT003 BKN008 12/11 A2999 RMK AO2
KHAF 260215Z AUTO 00000KT 3SM BR BKN003 13/12 A2997 RMK AO2
KHAF 260155Z AUTO 00000KT 2 1/2SM BR SCT003 13/12 A2997 RMK AO2
KHAF 260135Z AUTO 31005KT 2SM BR SCT003 14/12 A2996 RMK AO2
KHAF 260115Z AUTO 32005KT 2 1/2SM BR FEW003 14/12 A2995 RMK AO2
KHAF 260055Z AUTO 31006KT 3SM BR SCT003 14/12 A2994 RMK AO2
KHAF 260035Z AUTO 31006KT 3SM HZ SCT003 15/12 A2994 RMK AO2
KHAF 260015Z AUTO 30006KT 3SM HZ FEW003 15/12 A2993 RMK AO2
KHAF 252355Z AUTO 31007KT 4SM HZ CLR 15/12 A2992 RMK AO2
KHAF 252335Z AUTO 30006KT 4SM HZ CLR 15/13 A2992 RMK AO2
KHAF 252315Z AUTO 29006G11KT 4SM HZ CLR 15/13 A2992 RMK AO2
KHAF 252255Z AUTO 28009KT 4SM HZ CLR 16/12 A2991 RMK AO2
KHAF 252235Z AUTO 29008KT 5SM HZ CLR 16/12 A2990 RMK AO2
KHAF 252215Z AUTO 29009KT 4SM HZ CLR 16/12 A2990 RMK AO2
KHAF 252155Z AUTO 28007KT 3SM HZ CLR 16/13 A2989 RMK AO2
KHAF 252135Z AUTO 26007KT 3SM HZ CLR 16/13 A2989 RMK AO2
KHAF 252115Z AUTO 25007KT 3SM HZ CLR 16/13 A2988 RMK AO2
KHAF 252055Z AUTO 27007KT 3SM HZ CLR 16/13 A2988 RMK AO2
KHAF 252035Z AUTO 25007KT 3SM HZ CLR 16/13 A2988 RMK AO2
KHAF 252015Z AUTO 26006KT 3SM HZ CLR 16/13 A2988 RMK AO2
KHAF 251955Z AUTO 26006KT 3SM HZ CLR 16/13 A2988 RMK AO2
KHAF 251935Z AUTO 29006KT 3SM HZ CLR 16/13 A2987 RMK AO2
KHAF 251915Z AUTO 28007KT 3SM HZ CLR 15/13 A2986 RMK AO2
KHAF 251855Z AUTO 29008KT 3SM HZ CLR 15/12 A2985 RMK AO2
KHAF 251835Z AUTO 29007KT 4SM HZ CLR 16/12 A2984 RMK AO2
KHAF 251815Z AUTO 30007KT 3SM HZ CLR 16/13 A2983 RMK AO2
KHAF 251755Z AUTO 30008G13KT 4SM HZ CLR 15/12 A2982 RMK AO2
No TAF found for KHAF